Centerville, MA

6:16 PM EST on December 17, 2014 (GMT -0500)
Chatham Municipal | Change Station
CLOSE
Current Station
Airport
Location: Chatham,
Elevation: 66 ft
Nearby Weather Stations

Elev 66 ft 41.69 °N, 69.99 °W | Updated 24 minutes ago

Mostly Cloudy
Mostly Cloudy
45 °F
Feels Like 42 °F
N
6
Wind Variable Wind from West

Today
High -- | Low -- °F
--% Chance of Precip.
Yesterday
High -- | Low -- °F
Precip. -- in
7:02 AM 4:12 PM
Waning Crescent, 19% visible
Pressure 29.72 in
Visibility 10.0 miles
Clouds Overcast 2600 ft
Windchill 42 °F
Dew Point 42 °F
Humidity 90%
Rainfall 0.26 in
Snow Depth Not available.
UV 0 out of 12
Pollen .10 out of 12
Air Quality Not available.
Flu Activity Not available.
METAR KCQX 172252Z AUTO 27005KT 10SM OVC026 07/06 A2971 RMK AO2 SLP063 T00720056

More Conditions Fewer Conditions

Pressure 29.72 in
Visibility 10.0 miles
Clouds Overcast 2600 ft
Windchill 42 °F
Dew Point 42 °F
Humidity 90%
Rainfall 0.26 in
Snow Depth Not available.
UV 0 out of 12
Pollen .10 out of 12
Air Quality Not available.
Flu Activity Not available.
METAR KCQX 172252Z AUTO 27005KT 10SM OVC026 07/06 A2971 RMK AO2 SLP063 T00720056

More Conditions Fewer Conditions

10-Day Weather Forecast

Almanac

Astronomy

Dec. 17, 2014 Rise Set
Actual Time
Civil Twilight
Nautical Twilight
Astronomical Twilight
Moon
Length of Visible Light
Length of Day
Tomorrow will be .
, % of the Moon is Illuminated

Today's Extremes

State Highs State Lows

Community

WunderPhotos

Upload Photos

1,778,822 photos uploaded!

WunderBlogs® & News

Nearby

Air Quality

  Air Quality AQ Index Pollutant
Not available.

Snow Depth

Station Depth Elevation

Earthquake Activity

City Distance Mag. Time & Date
Minimum magnitude displayed is 2.5.

Coastal Water Temperatures

Place Temperature

Nearby Weather Stations